sensor_id;sensor_type;location;lat;lon;timestamp;temperature;humidity
27276;DHT22;14772;47.398;8.080;2022-12-18T00:01:49;0.70;99.90
27276;DHT22;14772;47.398;8.080;2022-12-18T00:06:47;0.80;99.90
27276;DHT22;14772;47.398;8.080;2022-12-18T00:11:44;0.70;99.90
27276;DHT22;14772;47.398;8.080;2022-12-18T00:16:44;0.70;99.90
27276;DHT22;14772;47.398;8.080;2022-12-18T00:21:42;0.80;99.90
27276;DHT22;14772;47.398;8.080;2022-12-18T00:26:40;0.80;99.90
27276;DHT22;14772;47.398;8.080;2022-12-18T00:31:37;0.70;99.90
27276;DHT22;14772;47.398;8.080;2022-12-18T00:36:35;0.70;99.90
27276;DHT22;14772;47.398;8.080;2022-12-18T00:41:33;0.70;99.90
27276;DHT22;14772;47.398;8.080;2022-12-18T00:46:31;0.80;99.90
27276;DHT22;14772;47.398;8.080;2022-12-18T00:51:28;0.70;99.90
27276;DHT22;14772;47.398;8.080;2022-12-18T00:56:25;0.70;99.90
27276;DHT22;14772;47.398;8.080;2022-12-18T01:01:23;0.70;99.90
27276;DHT22;14772;47.398;8.080;2022-12-18T01:06:20;0.80;99.90
27276;DHT22;14772;47.398;8.080;2022-12-18T01:11:19;0.80;99.90
27276;DHT22;14772;47.398;8.080;2022-12-18T01:16:17;0.80;99.90
27276;DHT22;14772;47.398;8.080;2022-12-18T01:21:16;0.80;99.90
27276;DHT22;14772;47.398;8.080;2022-12-18T01:26:15;0.80;99.90
27276;DHT22;14772;47.398;8.080;2022-12-18T01:31:15;0.80;99.90
27276;DHT22;14772;47.398;8.080;2022-12-18T01:36:17;0.80;99.90
27276;DHT22;14772;47.398;8.080;2022-12-18T01:46:26;0.80;99.90
27276;DHT22;14772;47.398;8.080;2022-12-18T01:51:23;0.80;99.90
27276;DHT22;14772;47.398;8.080;2022-12-18T01:56:21;0.80;99.90
27276;DHT22;14772;47.398;8.080;2022-12-18T02:01:20;0.80;99.90
27276;DHT22;14772;47.398;8.080;2022-12-18T02:06:21;0.70;99.90
27276;DHT22;14772;47.398;8.080;2022-12-18T02:11:24;0.70;99.90
27276;DHT22;14772;47.398;8.080;2022-12-18T02:16:27;0.60;99.90
27276;DHT22;14772;47.398;8.080;2022-12-18T02:21:31;0.70;99.90
27276;DHT22;14772;47.398;8.080;2022-12-18T02:26:31;0.80;99.90
27276;DHT22;14772;47.398;8.080;2022-12-18T02:31:35;0.80;99.90
27276;DHT22;14772;47.398;8.080;2022-12-18T02:36:34;0.70;99.90
27276;DHT22;14772;47.398;8.080;2022-12-18T02:41:33;0.80;99.90
27276;DHT22;14772;47.398;8.080;2022-12-18T02:46:34;0.80;99.90
27276;DHT22;14772;47.398;8.080;2022-12-18T02:51:36;0.80;99.90
27276;DHT22;14772;47.398;8.080;2022-12-18T02:56:37;0.80;99.90
27276;DHT22;14772;47.398;8.080;2022-12-18T03:01:38;0.80;99.90
27276;DHT22;14772;47.398;8.080;2022-12-18T03:06:40;0.70;99.90
27276;DHT22;14772;47.398;8.080;2022-12-18T03:11:41;0.80;99.90
27276;DHT22;14772;47.398;8.080;2022-12-18T03:16:40;0.80;99.90
27276;DHT22;14772;47.398;8.080;2022-12-18T03:21:42;0.70;99.90
27276;DHT22;14772;47.398;8.080;2022-12-18T03:26:42;0.80;99.90
27276;DHT22;14772;47.398;8.080;2022-12-18T03:31:45;0.80;99.90
27276;DHT22;14772;47.398;8.080;2022-12-18T03:36:42;0.60;99.90
27276;DHT22;14772;47.398;8.080;2022-12-18T03:46:58;0.70;99.90
27276;DHT22;14772;47.398;8.080;2022-12-18T03:51:59;0.80;99.90
27276;DHT22;14772;47.398;8.080;2022-12-18T03:56:59;0.80;99.90
27276;DHT22;14772;47.398;8.080;2022-12-18T04:02:17;0.80;99.90
27276;DHT22;14772;47.398;8.080;2022-12-18T04:07:15;0.80;99.90
27276;DHT22;14772;47.398;8.080;2022-12-18T04:12:13;0.80;99.90
27276;DHT22;14772;47.398;8.080;2022-12-18T04:17:10;0.70;99.90
27276;DHT22;14772;47.398;8.080;2022-12-18T04:22:09;0.80;99.90
27276;DHT22;14772;47.398;8.080;2022-12-18T04:27:07;0.80;99.90
27276;DHT22;14772;47.398;8.080;2022-12-18T04:32:05;0.80;99.90
27276;DHT22;14772;47.398;8.080;2022-12-18T04:37:02;0.80;99.90
27276;DHT22;14772;47.398;8.080;2022-12-18T04:41:59;0.80;99.90
27276;DHT22;14772;47.398;8.080;2022-12-18T04:46:56;0.70;99.90
27276;DHT22;14772;47.398;8.080;2022-12-18T04:51:54;0.70;99.90
27276;DHT22;14772;47.398;8.080;2022-12-18T04:56:52;0.80;99.90
27276;DHT22;14772;47.398;8.080;2022-12-18T05:01:49;0.80;99.90
27276;DHT22;14772;47.398;8.080;2022-12-18T05:06:47;0.90;99.90
27276;DHT22;14772;47.398;8.080;2022-12-18T05:11:44;0.80;99.90
27276;DHT22;14772;47.398;8.080;2022-12-18T05:21:53;0.70;99.90
27276;DHT22;14772;47.398;8.080;2022-12-18T05:26:51;0.70;99.90
27276;DHT22;14772;47.398;8.080;2022-12-18T05:31:48;0.70;99.90
27276;DHT22;14772;47.398;8.080;2022-12-18T05:36:46;0.70;99.90
27276;DHT22;14772;47.398;8.080;2022-12-18T05:41:43;0.70;99.90
27276;DHT22;14772;47.398;8.080;2022-12-18T05:46:41;0.70;99.90
27276;DHT22;14772;47.398;8.080;2022-12-18T05:51:38;0.70;99.90
27276;DHT22;14772;47.398;8.080;2022-12-18T05:56:35;0.70;99.90
27276;DHT22;14772;47.398;8.080;2022-12-18T06:01:33;0.80;99.90
27276;DHT22;14772;47.398;8.080;2022-12-18T06:06:30;0.80;99.90
27276;DHT22;14772;47.398;8.080;2022-12-18T06:11:27;0.80;99.90
27276;DHT22;14772;47.398;8.080;2022-12-18T06:16:25;0.80;99.90
27276;DHT22;14772;47.398;8.080;2022-12-18T06:21:22;0.80;99.90
27276;DHT22;14772;47.398;8.080;2022-12-18T06:26:19;0.80;99.90
27276;DHT22;14772;47.398;8.080;2022-12-18T06:31:17;0.80;99.90
27276;DHT22;14772;47.398;8.080;2022-12-18T06:36:14;0.80;99.90
27276;DHT22;14772;47.398;8.080;2022-12-18T06:41:14;0.90;99.90
27276;DHT22;14772;47.398;8.080;2022-12-18T06:46:12;0.90;99.90
27276;DHT22;14772;47.398;8.080;2022-12-18T06:51:09;0.90;99.90
27276;DHT22;14772;47.398;8.080;2022-12-18T06:56:07;0.90;99.90
27276;DHT22;14772;47.398;8.080;2022-12-18T07:01:06;0.90;99.90
27276;DHT22;14772;47.398;8.080;2022-12-18T07:06:04;1.00;99.90
27276;DHT22;14772;47.398;8.080;2022-12-18T07:11:04;0.90;99.90
27276;DHT22;14772;47.398;8.080;2022-12-18T07:16:09;1.00;99.90
27276;DHT22;14772;47.398;8.080;2022-12-18T07:21:08;1.00;99.90
27276;DHT22;14772;47.398;8.080;2022-12-18T07:26:08;0.90;99.90
27276;DHT22;14772;47.398;8.080;2022-12-18T07:31:07;1.00;99.90
27276;DHT22;14772;47.398;8.080;2022-12-18T07:36:07;1.00;99.90
27276;DHT22;14772;47.398;8.080;2022-12-18T07:41:07;1.00;99.90
27276;DHT22;14772;47.398;8.080;2022-12-18T07:46:05;1.00;99.90
27276;DHT22;14772;47.398;8.080;2022-12-18T07:51:05;0.90;99.90
27276;DHT22;14772;47.398;8.080;2022-12-18T07:56:05;1.00;99.90
27276;DHT22;14772;47.398;8.080;2022-12-18T08:01:05;1.00;99.90
27276;DHT22;14772;47.398;8.080;2022-12-18T08:06:05;1.00;99.90
27276;DHT22;14772;47.398;8.080;2022-12-18T08:11:03;1.00;99.90
27276;DHT22;14772;47.398;8.080;2022-12-18T08:16:02;1.10;99.90
27276;DHT22;14772;47.398;8.080;2022-12-18T08:21:08;1.10;99.90
27276;DHT22;14772;47.398;8.080;2022-12-18T08:26:05;1.10;99.90
27276;DHT22;14772;47.398;8.080;2022-12-18T08:31:22;1.10;99.90
27276;DHT22;14772;47.398;8.080;2022-12-18T08:36:20;1.10;99.90
27276;DHT22;14772;47.398;8.080;2022-12-18T08:41:18;1.20;99.90
27276;DHT22;14772;47.398;8.080;2022-12-18T08:46:15;1.20;99.90
27276;DHT22;14772;47.398;8.080;2022-12-18T08:51:13;1.20;99.90
27276;DHT22;14772;47.398;8.080;2022-12-18T08:56:12;1.20;99.90
27276;DHT22;14772;47.398;8.080;2022-12-18T09:01:11;1.30;99.90
27276;DHT22;14772;47.398;8.080;2022-12-18T09:06:08;1.20;99.90
27276;DHT22;14772;47.398;8.080;2022-12-18T09:11:10;1.40;99.90
27276;DHT22;14772;47.398;8.080;2022-12-18T09:16:09;1.40;99.90
27276;DHT22;14772;47.398;8.080;2022-12-18T09:21:11;1.40;99.90
27276;DHT22;14772;47.398;8.080;2022-12-18T09:26:08;1.40;99.90
27276;DHT22;14772;47.398;8.080;2022-12-18T09:31:08;1.40;99.90
27276;DHT22;14772;47.398;8.080;2022-12-18T09:36:08;1.40;99.90
27276;DHT22;14772;47.398;8.080;2022-12-18T09:41:15;1.50;99.90
27276;DHT22;14772;47.398;8.080;2022-12-18T09:46:15;1.40;99.90
27276;DHT22;14772;47.398;8.080;2022-12-18T09:51:17;1.40;99.90
27276;DHT22;14772;47.398;8.080;2022-12-18T09:56:17;1.40;99.90
27276;DHT22;14772;47.398;8.080;2022-12-18T10:01:18;1.40;99.90
27276;DHT22;14772;47.398;8.080;2022-12-18T10:06:20;1.50;99.90
27276;DHT22;14772;47.398;8.080;2022-12-18T10:11:27;1.60;99.90
27276;DHT22;14772;47.398;8.080;2022-12-18T10:16:27;1.50;99.90
27276;DHT22;14772;47.398;8.080;2022-12-18T10:21:31;1.60;99.90
27276;DHT22;14772;47.398;8.080;2022-12-18T10:26:29;1.60;99.90
27276;DHT22;14772;47.398;8.080;2022-12-18T10:31:28;1.60;99.90
27276;DHT22;14772;47.398;8.080;2022-12-18T10:36:25;1.60;99.90
27276;DHT22;14772;47.398;8.080;2022-12-18T10:41:26;1.70;99.90
27276;DHT22;14772;47.398;8.080;2022-12-18T10:46:23;1.70;99.90
27276;DHT22;14772;47.398;8.080;2022-12-18T10:51:23;1.70;99.90
27276;DHT22;14772;47.398;8.080;2022-12-18T10:56:21;1.70;99.90
27276;DHT22;14772;47.398;8.080;2022-12-18T11:01:19;1.80;99.90
27276;DHT22;14772;47.398;8.080;2022-12-18T11:06:17;1.80;99.90
27276;DHT22;14772;47.398;8.080;2022-12-18T11:11:21;1.90;99.90
27276;DHT22;14772;47.398;8.080;2022-12-18T11:16:19;1.90;99.90
27276;DHT22;14772;47.398;8.080;2022-12-18T11:21:17;2.00;99.90
27276;DHT22;14772;47.398;8.080;2022-12-18T11:26:14;2.10;99.90
27276;DHT22;14772;47.398;8.080;2022-12-18T11:31:24;2.10;99.90
27276;DHT22;14772;47.398;8.080;2022-12-18T11:36:22;2.10;99.90
27276;DHT22;14772;47.398;8.080;2022-12-18T11:41:23;2.10;99.90
27276;DHT22;14772;47.398;8.080;2022-12-18T11:46:27;2.10;99.90
27276;DHT22;14772;47.398;8.080;2022-12-18T11:51:28;2.10;99.90
27276;DHT22;14772;47.398;8.080;2022-12-18T11:56:31;2.10;99.90
27276;DHT22;14772;47.398;8.080;2022-12-18T12:01:36;2.10;99.90
27276;DHT22;14772;47.398;8.080;2022-12-18T12:06:38;2.20;99.90
27276;DHT22;14772;47.398;8.080;2022-12-18T12:11:41;2.20;99.90
27276;DHT22;14772;47.398;8.080;2022-12-18T12:16:43;2.20;99.90
27276;DHT22;14772;47.398;8.080;2022-12-18T12:21:42;2.20;99.90
27276;DHT22;14772;47.398;8.080;2022-12-18T12:26:45;2.20;99.90
27276;DHT22;14772;47.398;8.080;2022-12-18T12:31:54;2.20;99.90
27276;DHT22;14772;47.398;8.080;2022-12-18T12:37:01;2.20;99.90
27276;DHT22;14772;47.398;8.080;2022-12-18T12:41:58;2.20;99.90
27276;DHT22;14772;47.398;8.080;2022-12-18T12:46:59;2.20;99.90
27276;DHT22;14772;47.398;8.080;2022-12-18T12:52:00;2.30;99.90
27276;DHT22;14772;47.398;8.080;2022-12-18T12:57:00;2.30;99.90
27276;DHT22;14772;47.398;8.080;2022-12-18T13:02:02;2.30;99.90
27276;DHT22;14772;47.398;8.080;2022-12-18T13:07:03;2.20;99.90
27276;DHT22;14772;47.398;8.080;2022-12-18T13:12:04;2.30;99.90
27276;DHT22;14772;47.398;8.080;2022-12-18T13:17:26;2.20;99.90
27276;DHT22;14772;47.398;8.080;2022-12-18T13:22:28;2.20;99.90
27276;DHT22;14772;47.398;8.080;2022-12-18T13:28:01;2.20;99.90
27276;DHT22;14772;47.398;8.080;2022-12-18T13:38:35;2.20;99.90
27276;DHT22;14772;47.398;8.080;2022-12-18T13:43:40;2.20;99.90
27276;DHT22;14772;47.398;8.080;2022-12-18T13:48:38;2.20;99.90
27276;DHT22;14772;47.398;8.080;2022-12-18T13:53:39;2.20;99.90
27276;DHT22;14772;47.398;8.080;2022-12-18T13:58:37;2.30;99.90
27276;DHT22;14772;47.398;8.080;2022-12-18T14:03:35;2.30;99.90
27276;DHT22;14772;47.398;8.080;2022-12-18T14:08:42;2.20;99.90
27276;DHT22;14772;47.398;8.080;2022-12-18T14:13:41;2.20;99.90
27276;DHT22;14772;47.398;8.080;2022-12-18T14:18:43;2.20;99.90
27276;DHT22;14772;47.398;8.080;2022-12-18T14:23:41;2.10;99.90
27276;DHT22;14772;47.398;8.080;2022-12-18T14:28:44;2.20;99.90
27276;DHT22;14772;47.398;8.080;2022-12-18T14:33:41;2.20;99.90
27276;DHT22;14772;47.398;8.080;2022-12-18T14:38:39;2.20;99.90
27276;DHT22;14772;47.398;8.080;2022-12-18T14:43:38;2.10;99.90
27276;DHT22;14772;47.398;8.080;2022-12-18T14:48:38;2.20;99.90
27276;DHT22;14772;47.398;8.080;2022-12-18T14:53:38;2.20;99.90
27276;DHT22;14772;47.398;8.080;2022-12-18T14:58:36;2.10;99.90
27276;DHT22;14772;47.398;8.080;2022-12-18T15:03:33;2.20;99.90
27276;DHT22;14772;47.398;8.080;2022-12-18T15:08:35;2.20;99.90
27276;DHT22;14772;47.398;8.080;2022-12-18T15:13:32;2.10;99.90
27276;DHT22;14772;47.398;8.080;2022-12-18T15:18:32;2.20;99.90
27276;DHT22;14772;47.398;8.080;2022-12-18T15:23:34;2.10;99.90
27276;DHT22;14772;47.398;8.080;2022-12-18T15:28:34;2.10;99.90
27276;DHT22;14772;47.398;8.080;2022-12-18T15:33:34;2.10;99.90
27276;DHT22;14772;47.398;8.080;2022-12-18T15:38:31;2.10;99.90
27276;DHT22;14772;47.398;8.080;2022-12-18T15:43:29;2.00;99.90
27276;DHT22;14772;47.398;8.080;2022-12-18T15:48:27;2.10;99.90
27276;DHT22;14772;47.398;8.080;2022-12-18T15:53:24;2.10;99.90
27276;DHT22;14772;47.398;8.080;2022-12-18T15:58:22;1.90;99.90
27276;DHT22;14772;47.398;8.080;2022-12-18T16:03:19;1.90;99.90
27276;DHT22;14772;47.398;8.080;2022-12-18T16:08:16;1.90;99.90
27276;DHT22;14772;47.398;8.080;2022-12-18T16:13:16;1.70;99.90
27276;DHT22;14772;47.398;8.080;2022-12-18T16:18:15;1.70;99.90
27276;DHT22;14772;47.398;8.080;2022-12-18T16:23:12;1.80;99.90
27276;DHT22;14772;47.398;8.080;2022-12-18T16:28:09;1.70;99.90
27276;DHT22;14772;47.398;8.080;2022-12-18T16:33:07;1.80;99.90
27276;DHT22;14772;47.398;8.080;2022-12-18T16:38:05;1.90;99.90
27276;DHT22;14772;47.398;8.080;2022-12-18T16:43:02;1.90;99.90
27276;DHT22;14772;47.398;8.080;2022-12-18T16:47:59;1.90;99.90
27276;DHT22;14772;47.398;8.080;2022-12-18T16:52:57;1.80;99.90
27276;DHT22;14772;47.398;8.080;2022-12-18T16:57:54;1.90;99.90
27276;DHT22;14772;47.398;8.080;2022-12-18T17:02:51;1.90;99.90
27276;DHT22;14772;47.398;8.080;2022-12-18T17:07:48;1.90;99.90
27276;DHT22;14772;47.398;8.080;2022-12-18T17:12:45;1.70;99.90
27276;DHT22;14772;47.398;8.080;2022-12-18T17:17:43;1.70;99.90
27276;DHT22;14772;47.398;8.080;2022-12-18T17:22:40;1.80;99.90
27276;DHT22;14772;47.398;8.080;2022-12-18T17:27:37;1.90;99.90
27276;DHT22;14772;47.398;8.080;2022-12-18T17:32:35;1.80;99.90
27276;DHT22;14772;47.398;8.080;2022-12-18T17:42:39;1.90;99.90
27276;DHT22;14772;47.398;8.080;2022-12-18T17:47:37;1.80;99.90
27276;DHT22;14772;47.398;8.080;2022-12-18T17:52:34;1.70;99.90
27276;DHT22;14772;47.398;8.080;2022-12-18T17:57:31;1.70;99.90
27276;DHT22;14772;47.398;8.080;2022-12-18T18:02:28;1.70;99.90
27276;DHT22;14772;47.398;8.080;2022-12-18T18:07:25;1.70;99.90
27276;DHT22;14772;47.398;8.080;2022-12-18T18:12:23;1.80;99.90
27276;DHT22;14772;47.398;8.080;2022-12-18T18:17:20;1.80;99.90
27276;DHT22;14772;47.398;8.080;2022-12-18T18:22:17;1.80;99.90
27276;DHT22;14772;47.398;8.080;2022-12-18T18:27:14;1.80;99.90
27276;DHT22;14772;47.398;8.080;2022-12-18T18:32:11;1.80;99.90
27276;DHT22;14772;47.398;8.080;2022-12-18T18:37:09;1.80;99.90
27276;DHT22;14772;47.398;8.080;2022-12-18T18:42:06;1.80;99.90
27276;DHT22;14772;47.398;8.080;2022-12-18T18:47:04;1.70;99.90
27276;DHT22;14772;47.398;8.080;2022-12-18T18:52:02;1.70;99.90
27276;DHT22;14772;47.398;8.080;2022-12-18T18:56:59;1.60;99.90
27276;DHT22;14772;47.398;8.080;2022-12-18T19:01:56;1.70;99.90
27276;DHT22;14772;47.398;8.080;2022-12-18T19:06:53;1.70;99.90
27276;DHT22;14772;47.398;8.080;2022-12-18T19:11:51;1.70;99.90
27276;DHT22;14772;47.398;8.080;2022-12-18T19:16:48;1.80;99.90
27276;DHT22;14772;47.398;8.080;2022-12-18T19:21:45;1.80;99.90
27276;DHT22;14772;47.398;8.080;2022-12-18T19:26:42;1.70;99.90
27276;DHT22;14772;47.398;8.080;2022-12-18T19:31:40;1.70;99.90
27276;DHT22;14772;47.398;8.080;2022-12-18T19:36:38;1.70;99.90
27276;DHT22;14772;47.398;8.080;2022-12-18T19:41:36;1.60;99.90
27276;DHT22;14772;47.398;8.080;2022-12-18T19:46:33;1.70;99.90
27276;DHT22;14772;47.398;8.080;2022-12-18T19:51:31;1.80;99.90
27276;DHT22;14772;47.398;8.080;2022-12-18T19:56:30;1.70;99.90
27276;DHT22;14772;47.398;8.080;2022-12-18T20:01:29;1.60;99.90
27276;DHT22;14772;47.398;8.080;2022-12-18T20:06:28;1.60;99.90
27276;DHT22;14772;47.398;8.080;2022-12-18T20:11:26;1.60;99.90
27276;DHT22;14772;47.398;8.080;2022-12-18T20:16:23;1.60;99.90
27276;DHT22;14772;47.398;8.080;2022-12-18T20:21:20;1.70;99.90
27276;DHT22;14772;47.398;8.080;2022-12-18T20:26:17;1.70;99.90
27276;DHT22;14772;47.398;8.080;2022-12-18T20:31:15;1.70;99.90
27276;DHT22;14772;47.398;8.080;2022-12-18T20:36:16;1.70;99.90
27276;DHT22;14772;47.398;8.080;2022-12-18T20:41:16;1.70;99.90
27276;DHT22;14772;47.398;8.080;2022-12-18T20:46:15;1.60;99.90
27276;DHT22;14772;47.398;8.080;2022-12-18T20:51:14;1.60;99.90
27276;DHT22;14772;47.398;8.080;2022-12-18T20:56:15;1.70;99.90
27276;DHT22;14772;47.398;8.080;2022-12-18T21:01:14;1.60;99.90
27276;DHT22;14772;47.398;8.080;2022-12-18T21:06:13;1.60;99.90
27276;DHT22;14772;47.398;8.080;2022-12-18T21:11:16;1.60;99.90
27276;DHT22;14772;47.398;8.080;2022-12-18T21:16:14;1.60;99.90
27276;DHT22;14772;47.398;8.080;2022-12-18T21:21:11;1.60;99.90
27276;DHT22;14772;47.398;8.080;2022-12-18T21:26:17;1.60;99.90
27276;DHT22;14772;47.398;8.080;2022-12-18T21:31:14;1.60;99.90
27276;DHT22;14772;47.398;8.080;2022-12-18T21:36:11;1.50;99.90
27276;DHT22;14772;47.398;8.080;2022-12-18T21:41:09;1.50;99.90
27276;DHT22;14772;47.398;8.080;2022-12-18T21:46:07;1.60;99.90
27276;DHT22;14772;47.398;8.080;2022-12-18T21:51:05;1.60;99.90
27276;DHT22;14772;47.398;8.080;2022-12-18T21:56:02;1.50;99.90
27276;DHT22;14772;47.398;8.080;2022-12-18T22:00:59;1.40;99.90
27276;DHT22;14772;47.398;8.080;2022-12-18T22:05:57;1.40;99.90
27276;DHT22;14772;47.398;8.080;2022-12-18T22:10:54;1.50;99.90
27276;DHT22;14772;47.398;8.080;2022-12-18T22:15:52;1.50;99.90
27276;DHT22;14772;47.398;8.080;2022-12-18T22:20:49;1.50;99.90
27276;DHT22;14772;47.398;8.080;2022-12-18T22:25:48;1.50;99.90
27276;DHT22;14772;47.398;8.080;2022-12-18T22:30:45;1.50;99.90
27276;DHT22;14772;47.398;8.080;2022-12-18T22:35:42;1.50;99.90
27276;DHT22;14772;47.398;8.080;2022-12-18T22:40:40;1.60;99.90
27276;DHT22;14772;47.398;8.080;2022-12-18T22:45:37;1.50;99.90
27276;DHT22;14772;47.398;8.080;2022-12-18T22:50:34;1.60;99.90
27276;DHT22;14772;47.398;8.080;2022-12-18T22:55:31;1.60;99.90
27276;DHT22;14772;47.398;8.080;2022-12-18T23:00:29;1.60;99.90
27276;DHT22;14772;47.398;8.080;2022-12-18T23:05:26;1.50;99.90
27276;DHT22;14772;47.398;8.080;2022-12-18T23:10:23;1.60;99.90
27276;DHT22;14772;47.398;8.080;2022-12-18T23:15:21;1.60;99.90
27276;DHT22;14772;47.398;8.080;2022-12-18T23:20:18;1.60;99.90
27276;DHT22;14772;47.398;8.080;2022-12-18T23:25:15;1.60;99.90
27276;DHT22;14772;47.398;8.080;2022-12-18T23:30:13;1.60;99.90
27276;DHT22;14772;47.398;8.080;2022-12-18T23:35:10;1.60;99.90
27276;DHT22;14772;47.398;8.080;2022-12-18T23:40:09;1.50;99.90
27276;DHT22;14772;47.398;8.080;2022-12-18T23:45:08;1.60;99.90
27276;DHT22;14772;47.398;8.080;2022-12-18T23:50:07;1.50;99.90
27276;DHT22;14772;47.398;8.080;2022-12-18T23:55:06;1.60;99.90
